TimeAKDT,TemperatureF,Dew PointF,Humidity,Sea Level PressureIn,VisibilityMPH,Wind Direction,Wind SpeedMPH,Gust SpeedMPH,PrecipitationIn,Events,Conditions,WindDirDegrees,DateUTC
12:53 AM,52.0,46.0,80,29.64,10.0,SSW,8.1,-,N/A,,Clear,200,2013-06-25 08:53:00
1:53 AM,51.1,46.0,83,29.64,10.0,SSW,9.2,-,N/A,,Clear,200,2013-06-25 09:53:00
2:53 AM,52.0,46.0,80,29.64,10.0,SSW,8.1,-,N/A,,Clear,200,2013-06-25 10:53:00
3:53 AM,50.0,46.0,86,29.63,10.0,SSE,4.6,-,N/A,,Clear,160,2013-06-25 11:53:00
4:53 AM,48.0,45.0,89,29.63,10.0,Calm,Calm,-,N/A,,Clear,0,2013-06-25 12:53:00
5:53 AM,46.9,44.1,90,29.63,10.0,Calm,Calm,-,N/A,,Clear,0,2013-06-25 13:53:00
6:53 AM,53.1,46.9,80,29.62,10.0,Calm,Calm,-,N/A,,Clear,0,2013-06-25 14:53:00
7:53 AM,55.9,46.9,72,29.62,10.0,SW,5.8,-,N/A,,Clear,230,2013-06-25 15:53:00
8:53 AM,57.9,46.0,65,29.62,10.0,SW,4.6,-,N/A,,Clear,220,2013-06-25 16:53:00
9:53 AM,57.9,46.9,67,29.62,10.0,SW,5.8,-,N/A,,Clear,220,2013-06-25 17:53:00
10:53 AM,60.1,46.0,60,29.62,10.0,SSW,5.8,-,N/A,,Clear,210,2013-06-25 18:53:00
11:53 AM,60.1,46.0,60,29.62,10.0,SSW,4.6,-,N/A,,Clear,210,2013-06-25 19:53:00
12:53 PM,59.0,46.9,64,29.62,10.0,SW,5.8,-,N/A,,Clear,230,2013-06-25 20:53:00
1:53 PM,59.0,46.9,64,29.63,10.0,SSW,6.9,-,N/A,,Clear,200,2013-06-25 21:53:00
2:53 PM,55.9,46.9,72,29.62,10.0,SSW,8.1,-,N/A,,Mostly Cloudy,210,2013-06-25 22:53:00
3:53 PM,57.9,46.9,67,29.63,10.0,SW,8.1,-,N/A,,Partly Cloudy,220,2013-06-25 23:53:00
4:53 PM,57.0,48.0,72,29.63,10.0,SW,6.9,-,N/A,,Partly Cloudy,220,2013-06-26 00:53:00
5:53 PM,61.0,46.0,58,29.62,10.0,South,5.8,-,N/A,,Mostly Cloudy,190,2013-06-26 01:53:00
6:53 PM,64.0,48.9,58,29.62,10.0,SSW,3.5,-,N/A,,Scattered Clouds,210,2013-06-26 02:53:00
7:53 PM,64.9,50.0,58,29.62,10.0,SW,5.8,-,N/A,,Clear,230,2013-06-26 03:53:00
8:53 PM,63.0,48.9,60,29.62,10.0,SW,4.6,-,N/A,,Clear,220,2013-06-26 04:53:00
9:53 PM,57.0,46.0,67,29.63,10.0,SSW,8.1,-,N/A,,Scattered Clouds,200,2013-06-26 05:53:00
10:53 PM,55.0,46.0,72,29.63,10.0,SSW,5.8,-,N/A,,Clear,210,2013-06-26 06:53:00
11:53 PM,55.0,46.0,72,29.64,10.0,Calm,Calm,-,N/A,,Clear,0,2013-06-26 07:53:00